sensor_id;sensor_type;location;lat;lon;timestamp;temperature;humidity
45735;DHT22;31446;49.632;8.328;2023-03-03T00:11:39;3.70;94.50
45735;DHT22;31446;49.632;8.328;2023-03-03T00:26:47;3.70;95.20
45735;DHT22;31446;49.632;8.328;2023-03-03T00:41:54;3.60;95.90
45735;DHT22;31446;49.632;8.328;2023-03-03T00:57:01;3.60;96.40
45735;DHT22;31446;49.632;8.328;2023-03-03T01:12:08;3.50;97.10
45735;DHT22;31446;49.632;8.328;2023-03-03T01:27:15;3.40;98.00
45735;DHT22;31446;49.632;8.328;2023-03-03T01:42:21;3.00;99.30
45735;DHT22;31446;49.632;8.328;2023-03-03T01:57:34;2.90;99.90
45735;DHT22;31446;49.632;8.328;2023-03-03T02:12:44;2.70;99.90
45735;DHT22;31446;49.632;8.328;2023-03-03T02:27:53;2.50;99.90
45735;DHT22;31446;49.632;8.328;2023-03-03T02:43:00;2.30;99.90
45735;DHT22;31446;49.632;8.328;2023-03-03T02:58:07;2.30;99.90
45735;DHT22;31446;49.632;8.328;2023-03-03T03:13:13;2.00;99.90
45735;DHT22;31446;49.632;8.328;2023-03-03T03:28:19;2.00;99.90
45735;DHT22;31446;49.632;8.328;2023-03-03T03:43:26;2.00;99.90
45735;DHT22;31446;49.632;8.328;2023-03-03T03:58:32;1.50;99.90
45735;DHT22;31446;49.632;8.328;2023-03-03T04:13:38;1.40;99.90
45735;DHT22;31446;49.632;8.328;2023-03-03T04:28:44;1.20;99.90
45735;DHT22;31446;49.632;8.328;2023-03-03T04:43:50;1.30;99.90
45735;DHT22;31446;49.632;8.328;2023-03-03T04:58:56;1.20;99.90
45735;DHT22;31446;49.632;8.328;2023-03-03T05:14:02;1.20;99.90
45735;DHT22;31446;49.632;8.328;2023-03-03T05:29:10;1.20;99.90
45735;DHT22;31446;49.632;8.328;2023-03-03T05:44:16;1.20;99.90
45735;DHT22;31446;49.632;8.328;2023-03-03T05:59:22;1.20;99.90
45735;DHT22;31446;49.632;8.328;2023-03-03T06:14:29;1.10;99.90
45735;DHT22;31446;49.632;8.328;2023-03-03T06:29:35;0.80;99.90
45735;DHT22;31446;49.632;8.328;2023-03-03T06:44:41;0.90;99.90
45735;DHT22;31446;49.632;8.328;2023-03-03T06:59:48;1.20;99.90
45735;DHT22;31446;49.632;8.328;2023-03-03T07:15:09;1.50;99.90
45735;DHT22;31446;49.632;8.328;2023-03-03T07:30:25;2.00;99.90
45735;DHT22;31446;49.632;8.328;2023-03-03T07:45:37;2.70;99.90
45735;DHT22;31446;49.632;8.328;2023-03-03T08:16:27;3.40;99.90
45735;DHT22;31446;49.632;8.328;2023-03-03T08:31:35;3.30;99.90
45735;DHT22;31446;49.632;8.328;2023-03-03T08:46:41;3.80;99.90
45735;DHT22;31446;49.632;8.328;2023-03-03T09:01:48;3.90;99.90
45735;DHT22;31446;49.632;8.328;2023-03-03T09:16:56;4.30;99.90
45735;DHT22;31446;49.632;8.328;2023-03-03T09:32:16;5.00;99.90
45735;DHT22;31446;49.632;8.328;2023-03-03T09:47:36;5.50;99.90
45735;DHT22;31446;49.632;8.328;2023-03-03T10:18:24;6.60;99.90
45735;DHT22;31446;49.632;8.328;2023-03-03T10:33:40;7.10;99.90
45735;DHT22;31446;49.632;8.328;2023-03-03T10:49:12;7.60;99.90
45735;DHT22;31446;49.632;8.328;2023-03-03T11:04:48;8.10;99.90
45735;DHT22;31446;49.632;8.328;2023-03-03T11:20:02;8.50;99.90
45735;DHT22;31446;49.632;8.328;2023-03-03T11:35:22;8.50;99.90
45735;DHT22;31446;49.632;8.328;2023-03-03T11:50:34;8.60;99.90
45735;DHT22;31446;49.632;8.328;2023-03-03T12:05:49;8.90;99.90
45735;DHT22;31446;49.632;8.328;2023-03-03T12:21:06;10.30;99.90
45735;DHT22;31446;49.632;8.328;2023-03-03T12:36:25;10.60;99.90
45735;DHT22;31446;49.632;8.328;2023-03-03T12:51:46;10.20;99.90
45735;DHT22;31446;49.632;8.328;2023-03-03T13:06:58;10.90;99.90
45735;DHT22;31446;49.632;8.328;2023-03-03T13:22:12;10.40;99.80
45735;DHT22;31446;49.632;8.328;2023-03-03T13:37:26;10.50;99.30
45735;DHT22;31446;49.632;8.328;2023-03-03T13:52:38;12.00;96.90
45735;DHT22;31446;49.632;8.328;2023-03-03T14:07:53;11.70;96.10
45735;DHT22;31446;49.632;8.328;2023-03-03T14:23:07;11.50;94.50
45735;DHT22;31446;49.632;8.328;2023-03-03T14:38:16;11.60;94.60
45735;DHT22;31446;49.632;8.328;2023-03-03T14:53:32;11.20;93.90
45735;DHT22;31446;49.632;8.328;2023-03-03T15:08:39;11.40;94.40
45735;DHT22;31446;49.632;8.328;2023-03-03T15:23:51;11.30;94.50
45735;DHT22;31446;49.632;8.328;2023-03-03T15:39:12;11.10;93.20
45735;DHT22;31446;49.632;8.328;2023-03-03T15:54:33;10.90;93.70
45735;DHT22;31446;49.632;8.328;2023-03-03T16:09:50;10.50;94.40
45735;DHT22;31446;49.632;8.328;2023-03-03T16:25:18;10.00;94.90
45735;DHT22;31446;49.632;8.328;2023-03-03T16:40:28;9.50;96.30
45735;DHT22;31446;49.632;8.328;2023-03-03T16:55:44;9.10;97.20
45735;DHT22;31446;49.632;8.328;2023-03-03T17:10:56;8.70;98.00
45735;DHT22;31446;49.632;8.328;2023-03-03T17:41:41;7.60;99.90
45735;DHT22;31446;49.632;8.328;2023-03-03T17:57:01;7.10;99.90
45735;DHT22;31446;49.632;8.328;2023-03-03T18:12:20;6.70;99.90
45735;DHT22;31446;49.632;8.328;2023-03-03T18:27:32;6.30;99.90
45735;DHT22;31446;49.632;8.328;2023-03-03T18:42:40;5.60;99.90
45735;DHT22;31446;49.632;8.328;2023-03-03T19:13:47;4.30;99.90
45735;DHT22;31446;49.632;8.328;2023-03-03T19:28:57;3.80;99.90
45735;DHT22;31446;49.632;8.328;2023-03-03T19:44:19;3.40;99.90
45735;DHT22;31446;49.632;8.328;2023-03-03T19:59:32;3.00;99.90
45735;DHT22;31446;49.632;8.328;2023-03-03T20:14:44;2.80;99.90
45735;DHT22;31446;49.632;8.328;2023-03-03T20:30:11;2.50;99.90
45735;DHT22;31446;49.632;8.328;2023-03-03T20:45:33;2.40;99.90
45735;DHT22;31446;49.632;8.328;2023-03-03T21:00:49;2.20;99.90
45735;DHT22;31446;49.632;8.328;2023-03-03T21:16:00;1.90;99.90
45735;DHT22;31446;49.632;8.328;2023-03-03T21:31:12;1.80;99.90
45735;DHT22;31446;49.632;8.328;2023-03-03T21:46:23;1.60;99.90
45735;DHT22;31446;49.632;8.328;2023-03-03T22:01:29;1.60;99.90
45735;DHT22;31446;49.632;8.328;2023-03-03T22:16:36;1.60;99.90
45735;DHT22;31446;49.632;8.328;2023-03-03T22:31:42;1.40;99.90
45735;DHT22;31446;49.632;8.328;2023-03-03T22:46:48;1.30;99.90
45735;DHT22;31446;49.632;8.328;2023-03-03T23:01:54;1.20;99.90
45735;DHT22;31446;49.632;8.328;2023-03-03T23:17:00;1.10;99.90
45735;DHT22;31446;49.632;8.328;2023-03-03T23:32:07;0.90;99.90
45735;DHT22;31446;49.632;8.328;2023-03-03T23:47:13;0.80;99.90
